createdAt,value
2023-04-26T00:01:57.549Z,5.53
2023-04-26T00:04:25.325Z,5.15
2023-04-26T00:06:53.869Z,5.00
2023-04-26T00:09:20.991Z,3.97
2023-04-26T00:11:47.959Z,6.28
2023-04-26T00:14:15.681Z,4.18
2023-04-26T00:16:42.669Z,4.25
2023-04-26T00:19:12.796Z,5.85
2023-04-26T00:21:39.839Z,5.50
2023-04-26T00:24:08.718Z,4.95
2023-04-26T00:26:36.111Z,5.32
2023-04-26T00:29:04.431Z,7.25
2023-04-26T00:31:31.521Z,4.95
2023-04-26T00:33:58.449Z,5.25
2023-04-26T00:36:26.469Z,4.85
2023-04-26T00:38:53.839Z,5.85
2023-04-26T00:41:22.662Z,5.78
2023-04-26T00:43:49.916Z,4.18
2023-04-26T00:46:17.652Z,6.65
2023-04-26T00:48:45.202Z,5.38
2023-04-26T00:51:12.789Z,7.03
2023-04-26T00:53:40.020Z,5.32
2023-04-26T00:56:08.095Z,5.47
2023-04-26T00:58:36.867Z,6.28
2023-04-26T01:01:04.634Z,4.85
2023-04-26T01:03:31.729Z,6.60
2023-04-26T01:06:01.139Z,6.13
2023-04-26T01:08:28.179Z,4.90
2023-04-26T01:10:58.452Z,5.70
2023-04-26T01:13:26.871Z,5.60
2023-04-26T01:15:56.181Z,4.90
2023-04-26T01:18:23.258Z,4.78
2023-04-26T01:20:52.172Z,5.68
2023-04-26T01:28:13.976Z,5.03
2023-04-26T01:30:41.068Z,7.25
2023-04-26T01:33:08.053Z,6.38
2023-04-26T01:35:35.187Z,5.07
2023-04-26T01:38:04.393Z,5.88
2023-04-26T01:40:32.746Z,5.80
2023-04-26T01:42:59.813Z,6.95
2023-04-26T01:45:30.805Z,6.25
2023-04-26T01:48:16.863Z,6.65
2023-04-26T01:50:43.960Z,5.32
2023-04-26T01:53:13.691Z,5.75
2023-04-26T01:55:43.171Z,4.78
2023-04-26T01:58:10.132Z,5.32
2023-04-26T02:00:37.879Z,4.13
2023-04-26T02:03:04.908Z,4.80
2023-04-26T02:05:32.004Z,4.80
2023-04-26T02:07:58.995Z,7.20
2023-04-26T02:10:26.005Z,4.95
2023-04-26T02:12:54.318Z,6.18
2023-04-26T02:15:21.997Z,7.45
2023-04-26T02:17:49.757Z,5.45
2023-04-26T02:20:16.991Z,4.88
2023-04-26T02:22:44.192Z,4.72
2023-04-26T02:25:12.052Z,6.82
2023-04-26T02:27:39.001Z,5.63
2023-04-26T02:30:08.676Z,7.85
2023-04-26T02:32:36.507Z,6.47
2023-04-26T02:35:03.844Z,5.95
2023-04-26T02:37:30.853Z,5.90
2023-04-26T02:39:57.829Z,6.88
2023-04-26T02:42:25.098Z,6.65
2023-04-26T02:44:52.232Z,7.75
2023-04-26T02:47:20.741Z,10.20
2023-04-26T02:49:48.409Z,8.02
2023-04-26T02:52:15.409Z,6.35
2023-04-26T02:54:42.449Z,6.53
2023-04-26T02:57:09.950Z,6.95
2023-04-26T02:59:37.167Z,7.35
2023-04-26T03:02:04.193Z,7.68
2023-04-26T03:04:34.064Z,5.55
2023-04-26T03:07:01.316Z,7.53
2023-04-26T03:09:28.348Z,6.82
2023-04-26T03:11:55.326Z,7.10
2023-04-26T03:14:23.053Z,5.97
2023-04-26T03:16:50.437Z,6.70
2023-04-26T03:19:17.493Z,7.32
2023-04-26T03:21:46.051Z,6.63
2023-04-26T03:24:13.029Z,7.50
2023-04-26T03:26:40.130Z,7.43
2023-04-26T03:29:07.700Z,8.38
2023-04-26T03:31:34.999Z,8.10
2023-04-26T03:34:01.921Z,6.65
2023-04-26T03:36:29.875Z,6.47
2023-04-26T03:38:58.326Z,7.57
2023-04-26T03:41:25.581Z,9.18
2023-04-26T03:43:54.127Z,5.97
2023-04-26T03:46:21.166Z,5.50
2023-04-26T03:48:48.970Z,6.93
2023-04-26T03:51:16.858Z,9.00
2023-04-26T03:53:44.881Z,7.13
2023-04-26T03:56:13.883Z,4.90
2023-04-26T03:58:40.989Z,7.63
2023-04-26T04:01:08.722Z,5.60
2023-04-26T04:06:02.940Z,7.55
2023-04-26T04:08:29.941Z,8.25
2023-04-26T04:10:57.050Z,9.38
2023-04-26T04:13:26.455Z,9.80
2023-04-26T04:15:53.448Z,6.72
2023-04-26T04:18:20.536Z,8.10
2023-04-26T04:20:47.514Z,8.63
2023-04-26T04:23:14.681Z,9.50
2023-04-26T04:25:42.442Z,10.88
2023-04-26T04:28:12.116Z,11.93
2023-04-26T04:30:41.634Z,14.10
2023-04-26T04:33:08.677Z,16.92
2023-04-26T04:35:35.691Z,12.90
2023-04-26T04:38:04.956Z,15.35
2023-04-26T04:40:32.880Z,13.27
2023-04-26T04:43:01.031Z,14.45
2023-04-26T04:45:29.190Z,15.43
2023-04-26T04:47:59.112Z,15.75
2023-04-26T04:50:27.282Z,19.92
2023-04-26T04:55:22.832Z,18.90
2023-04-26T04:57:49.982Z,16.00
2023-04-26T05:00:18.015Z,18.10
2023-04-26T05:02:49.814Z,19.80
2023-04-26T05:05:18.522Z,17.67
2023-04-26T05:07:45.623Z,18.70
2023-04-26T05:10:13.440Z,18.35
2023-04-26T05:12:41.127Z,19.63
2023-04-26T05:15:09.358Z,18.85
2023-04-26T05:17:36.568Z,19.92
2023-04-26T05:20:31.352Z,20.13
2023-04-26T05:25:25.894Z,22.33
2023-04-26T05:28:12.645Z,21.05
2023-04-26T05:30:59.896Z,21.00
2023-04-26T05:33:39.912Z,22.90
2023-04-26T05:36:21.384Z,19.73
2023-04-26T05:38:48.907Z,27.77
2023-04-26T05:41:16.189Z,19.48
2023-04-26T05:43:43.630Z,17.00
2023-04-26T05:46:10.740Z,17.05
2023-04-26T05:48:37.874Z,14.05
2023-04-26T05:51:06.708Z,16.77
2023-04-26T05:53:35.037Z,22.08
2023-04-26T05:56:02.502Z,18.45
2023-04-26T05:58:29.477Z,14.88
2023-04-26T06:00:56.863Z,11.93
2023-04-26T06:03:24.755Z,14.07
2023-04-26T06:05:52.797Z,16.30
2023-04-26T06:08:21.854Z,14.88
2023-04-26T06:10:51.406Z,12.07
2023-04-26T06:13:18.345Z,10.50
2023-04-26T06:15:45.556Z,14.35
2023-04-26T06:18:12.632Z,7.55
2023-04-26T06:20:39.873Z,9.65
2023-04-26T06:23:07.776Z,10.48
2023-04-26T06:25:35.129Z,8.95
2023-04-26T06:28:03.912Z,4.93
2023-04-26T06:30:31.345Z,3.47
2023-04-26T06:33:00.296Z,5.78
2023-04-26T06:35:27.719Z,4.70
2023-04-26T06:37:54.694Z,3.45
2023-04-26T06:40:22.264Z,5.38
2023-04-26T06:42:49.709Z,5.53
2023-04-26T06:45:19.028Z,3.45
2023-04-26T06:47:46.815Z,3.90
2023-04-26T06:50:14.050Z,4.97
2023-04-26T06:52:40.941Z,5.40
2023-04-26T06:55:09.187Z,5.22
2023-04-26T06:57:36.487Z,5.55
2023-04-26T07:00:04.674Z,3.28
2023-04-26T07:02:33.094Z,3.20
2023-04-26T07:07:27.452Z,5.43
2023-04-26T07:09:54.612Z,4.93
2023-04-26T07:12:21.827Z,4.97
2023-04-26T07:14:48.840Z,5.03
2023-04-26T07:17:15.813Z,3.38
2023-04-26T07:19:44.142Z,5.38
2023-04-26T07:22:11.137Z,4.20
2023-04-26T07:24:38.222Z,3.72
2023-04-26T07:27:05.137Z,3.72
2023-04-26T07:29:32.098Z,3.30
2023-04-26T07:31:59.315Z,2.17
2023-04-26T07:34:26.336Z,2.97
2023-04-26T07:36:54.781Z,2.15
2023-04-26T07:41:48.701Z,1.92
2023-04-26T07:44:15.880Z,2.28
2023-04-26T07:46:42.800Z,2.10
2023-04-26T07:49:09.829Z,2.53
2023-04-26T07:51:37.244Z,2.67
2023-04-26T07:54:05.861Z,3.33
2023-04-26T07:56:32.863Z,2.88
2023-04-26T07:58:59.813Z,4.18
2023-04-26T08:01:27.169Z,2.97
2023-04-26T08:03:55.702Z,3.00
2023-04-26T08:06:23.000Z,3.40
2023-04-26T08:08:50.944Z,2.50
2023-04-26T08:11:19.471Z,3.00
2023-04-26T08:13:46.702Z,3.92
2023-04-26T08:16:14.094Z,2.88
2023-04-26T08:18:41.125Z,2.70
2023-04-26T08:21:08.064Z,2.65
2023-04-26T08:23:38.359Z,5.40
2023-04-26T08:26:06.591Z,2.88
2023-04-26T08:28:35.881Z,3.83
2023-04-26T08:31:03.000Z,3.67
2023-04-26T08:33:30.004Z,3.15
2023-04-26T08:35:59.473Z,2.50
2023-04-26T08:38:26.824Z,2.92
2023-04-26T08:40:56.287Z,3.55
2023-04-26T08:43:23.521Z,2.10
2023-04-26T08:45:51.867Z,2.75
2023-04-26T08:50:49.007Z,2.60
2023-04-26T08:53:18.013Z,2.92
2023-04-26T08:55:48.370Z,3.70
2023-04-26T08:58:16.635Z,2.65
2023-04-26T09:00:45.154Z,2.55
2023-04-26T09:03:13.856Z,1.63
2023-04-26T09:05:44.301Z,1.95
2023-04-26T09:08:16.350Z,2.95
2023-04-26T09:10:43.608Z,2.65
2023-04-26T09:13:11.530Z,1.65
2023-04-26T09:15:39.087Z,3.08
2023-04-26T09:18:21.429Z,3.03
2023-04-26T09:21:03.054Z,2.83
2023-04-26T09:23:30.791Z,1.98
2023-04-26T09:26:14.909Z,2.72
2023-04-26T09:28:42.805Z,2.50
2023-04-26T09:31:10.464Z,2.08
2023-04-26T09:33:57.921Z,2.53
2023-04-26T09:36:24.849Z,1.67
2023-04-26T09:38:52.021Z,1.80
2023-04-26T09:41:19.172Z,3.45
2023-04-26T09:43:46.783Z,2.42
2023-04-26T09:46:23.973Z,2.88
2023-04-26T09:49:03.043Z,2.88
2023-04-26T09:51:30.223Z,2.50
2023-04-26T09:53:57.248Z,2.33
2023-04-26T09:56:24.269Z,1.45
2023-04-26T09:59:00.908Z,2.85
2023-04-26T10:01:33.264Z,3.05
2023-04-26T10:04:02.676Z,1.70
2023-04-26T10:06:29.752Z,3.85
2023-04-26T10:08:57.104Z,2.50
2023-04-26T10:11:25.028Z,2.00
2023-04-26T10:13:52.209Z,2.67
2023-04-26T10:16:19.534Z,2.35
2023-04-26T10:18:46.546Z,1.63
2023-04-26T10:21:17.414Z,3.17
2023-04-26T10:23:46.132Z,1.98
2023-04-26T10:26:51.737Z,2.15
2023-04-26T10:29:19.323Z,1.50
2023-04-26T10:32:09.576Z,1.85
2023-04-26T10:34:37.697Z,3.67
2023-04-26T10:37:10.258Z,0.93
2023-04-26T10:39:37.748Z,1.63
2023-04-26T10:42:25.443Z,1.50
2023-04-26T10:44:54.070Z,1.30
2023-04-26T10:47:32.008Z,1.77
2023-04-26T10:50:05.878Z,1.63
2023-04-26T10:52:35.043Z,1.73
2023-04-26T10:55:02.854Z,2.78
2023-04-26T10:57:52.375Z,1.55
2023-04-26T11:00:31.960Z,2.30
2023-04-26T11:03:07.103Z,2.53
2023-04-26T11:05:54.258Z,1.42
2023-04-26T11:08:25.669Z,1.10
2023-04-26T11:10:58.611Z,1.05
2023-04-26T11:13:25.854Z,0.85
2023-04-26T11:15:53.839Z,0.70
2023-04-26T11:18:21.348Z,1.80
2023-04-26T11:20:48.332Z,4.13
2023-04-26T11:23:15.485Z,1.27
2023-04-26T11:25:44.511Z,1.48
2023-04-26T11:28:12.176Z,1.70
2023-04-26T11:30:39.218Z,2.78
2023-04-26T11:33:06.518Z,1.55
2023-04-26T11:35:35.079Z,2.15
2023-04-26T11:38:04.305Z,2.08
2023-04-26T11:40:32.631Z,2.78
2023-04-26T11:43:02.461Z,1.75
2023-04-26T11:45:29.840Z,2.00
2023-04-26T11:47:57.842Z,1.88
2023-04-26T11:50:26.857Z,1.73
2023-04-26T11:52:55.775Z,1.73
2023-04-26T11:55:28.692Z,3.30
2023-04-26T11:57:56.039Z,2.13
2023-04-26T12:00:25.753Z,1.60
2023-04-26T12:02:53.645Z,1.60
2023-04-26T12:05:24.964Z,1.30
2023-04-26T12:07:52.940Z,2.20
2023-04-26T12:10:21.635Z,1.17
2023-04-26T12:12:50.024Z,1.70
2023-04-26T12:15:18.129Z,1.70
2023-04-26T12:17:57.449Z,1.75
2023-04-26T12:20:32.125Z,2.38
2023-04-26T12:25:26.399Z,1.23
2023-04-26T12:27:53.352Z,2.60
2023-04-26T12:30:20.515Z,7.47
2023-04-26T12:33:15.506Z,3.08
2023-04-26T12:35:46.868Z,2.33
2023-04-26T12:38:14.629Z,1.05
2023-04-26T12:40:42.473Z,1.05
2023-04-26T12:43:10.029Z,1.80
2023-04-26T12:45:37.327Z,3.13
2023-04-26T12:48:06.536Z,1.55
2023-04-26T12:50:33.630Z,1.60
2023-04-26T12:53:00.560Z,1.80
2023-04-26T12:55:28.244Z,2.13
2023-04-26T12:57:56.602Z,3.00
2023-04-26T13:00:23.637Z,2.45
2023-04-26T13:02:50.981Z,1.15
2023-04-26T13:05:19.545Z,1.40
2023-04-26T13:07:46.608Z,1.10
2023-04-26T13:10:13.690Z,2.22
2023-04-26T13:12:40.765Z,2.50
2023-04-26T13:15:08.862Z,1.92
2023-04-26T13:17:37.474Z,1.65
2023-04-26T13:20:06.056Z,3.03
2023-04-26T13:22:34.820Z,4.30
2023-04-26T13:25:02.150Z,2.42
2023-04-26T13:27:31.354Z,1.70
2023-04-26T13:29:58.854Z,2.50
2023-04-26T13:32:26.120Z,3.83
2023-04-26T13:34:53.555Z,5.85
2023-04-26T13:37:21.541Z,5.53
2023-04-26T13:39:50.099Z,2.00
2023-04-26T13:42:17.626Z,3.08
2023-04-26T13:44:44.883Z,2.00
2023-04-26T13:47:11.900Z,2.33
2023-04-26T13:49:41.446Z,1.70
2023-04-26T13:52:08.391Z,2.65
2023-04-26T13:54:36.865Z,3.03
2023-04-26T13:57:05.933Z,5.18
2023-04-26T13:59:33.005Z,2.83
2023-04-26T14:01:59.956Z,3.00
2023-04-26T14:04:27.230Z,2.30
2023-04-26T14:06:54.509Z,2.65
2023-04-26T14:09:21.578Z,2.42
2023-04-26T14:11:54.200Z,4.68
2023-04-26T14:14:29.187Z,2.67
2023-04-26T14:19:23.185Z,3.28
2023-04-26T14:21:50.221Z,5.55
2023-04-26T14:24:17.234Z,4.50
2023-04-26T14:26:44.290Z,3.15
2023-04-26T14:29:11.200Z,3.47
2023-04-26T14:31:39.650Z,6.57
2023-04-26T14:36:33.814Z,2.58
2023-04-26T14:39:01.183Z,3.55
2023-04-26T14:41:28.244Z,3.45
2023-04-26T14:43:55.210Z,3.47
2023-04-26T14:46:22.752Z,4.13
2023-04-26T14:48:51.296Z,3.30
2023-04-26T14:51:18.284Z,4.47
2023-04-26T14:53:45.910Z,4.28
2023-04-26T14:56:12.979Z,3.05
2023-04-26T14:58:39.998Z,4.25
2023-04-26T15:01:07.710Z,3.80
2023-04-26T15:03:34.975Z,3.95
2023-04-26T15:06:04.005Z,4.22
2023-04-26T15:08:31.536Z,4.10
2023-04-26T15:10:58.583Z,4.38
2023-04-26T15:13:25.544Z,5.35
2023-04-26T15:15:52.814Z,4.00
2023-04-26T15:18:19.882Z,3.60
2023-04-26T15:20:46.888Z,4.95
2023-04-26T15:23:15.433Z,4.93
2023-04-26T15:25:42.542Z,3.42
2023-04-26T15:28:09.554Z,3.90
2023-04-26T15:30:36.578Z,3.58
2023-04-26T15:33:03.821Z,4.53
2023-04-26T15:35:31.382Z,4.17
2023-04-26T15:37:58.483Z,6.28
2023-04-26T15:40:27.712Z,3.70
2023-04-26T15:42:54.728Z,5.32
2023-04-26T15:45:21.789Z,4.38
2023-04-26T15:47:48.849Z,4.43
2023-04-26T15:50:16.020Z,4.65
2023-04-26T15:52:43.149Z,4.25
2023-04-26T15:55:10.597Z,5.28
2023-04-26T15:57:41.564Z,5.65
2023-04-26T16:00:12.915Z,4.57
2023-04-26T16:02:40.056Z,6.07
2023-04-26T16:05:08.338Z,5.47
2023-04-26T16:10:03.248Z,4.55
2023-04-26T16:12:30.245Z,5.75
2023-04-26T16:14:59.147Z,5.15
2023-04-26T16:17:26.380Z,5.38
2023-04-26T16:19:53.321Z,4.63
2023-04-26T16:22:20.388Z,5.90
2023-04-26T16:24:47.372Z,5.80
2023-04-26T16:27:14.384Z,5.07
2023-04-26T16:29:41.336Z,5.72
2023-04-26T16:32:09.848Z,6.40
2023-04-26T16:34:36.850Z,5.22
2023-04-26T16:37:03.876Z,5.32
2023-04-26T16:39:31.578Z,4.20
2023-04-26T16:41:58.642Z,4.88
2023-04-26T16:44:25.855Z,5.43
2023-04-26T16:46:52.846Z,7.78
2023-04-26T16:49:21.227Z,5.22
2023-04-26T16:51:53.768Z,5.85
2023-04-26T16:54:21.018Z,3.88
2023-04-26T16:56:47.972Z,4.65
2023-04-26T16:59:14.999Z,4.28
2023-04-26T17:01:42.163Z,5.18
2023-04-26T17:04:12.395Z,4.38
2023-04-26T17:06:41.425Z,5.70
2023-04-26T17:09:08.863Z,4.40
2023-04-26T17:11:37.424Z,5.85
2023-04-26T17:14:04.692Z,6.00
2023-04-26T17:16:31.831Z,4.53
2023-04-26T17:18:58.925Z,4.35
2023-04-26T17:21:26.052Z,6.07
2023-04-26T17:23:54.709Z,4.95
2023-04-26T17:26:22.114Z,5.15
2023-04-26T17:28:49.052Z,5.13
2023-04-26T17:31:16.169Z,4.25
2023-04-26T17:33:43.412Z,6.00
2023-04-26T17:36:10.893Z,3.95
2023-04-26T17:38:37.856Z,6.20
2023-04-26T17:41:06.195Z,5.22
2023-04-26T17:43:33.232Z,6.93
2023-04-26T17:46:00.461Z,5.70
2023-04-26T17:48:29.167Z,5.18
2023-04-26T17:50:56.364Z,6.85
2023-04-26T17:53:23.532Z,4.90
2023-04-26T17:55:51.955Z,4.40
2023-04-26T17:58:20.694Z,4.68
2023-04-26T18:00:48.813Z,5.20
2023-04-26T18:03:16.033Z,4.18
2023-04-26T18:05:43.164Z,6.10
2023-04-26T18:08:10.194Z,4.07
2023-04-26T18:10:37.299Z,5.85
2023-04-26T18:13:04.292Z,4.03
2023-04-26T18:15:32.619Z,6.35
2023-04-26T18:17:59.840Z,4.60
2023-04-26T18:20:27.146Z,5.25
2023-04-26T18:22:54.107Z,6.43
2023-04-26T18:25:21.095Z,4.70
2023-04-26T18:27:48.028Z,5.15
2023-04-26T18:30:15.305Z,8.55
2023-04-26T18:32:43.747Z,5.35
2023-04-26T18:35:11.834Z,7.60
2023-04-26T18:37:39.786Z,5.10
2023-04-26T18:40:08.044Z,4.43
2023-04-26T18:42:35.003Z,4.30
2023-04-26T18:45:02.571Z,4.28
2023-04-26T18:47:29.595Z,3.80
2023-04-26T18:49:58.340Z,5.25
2023-04-26T18:55:10.634Z,4.50
2023-04-26T18:57:37.543Z,3.72
2023-04-26T19:00:06.551Z,3.47
2023-04-26T19:02:34.446Z,3.70
2023-04-26T19:05:04.672Z,4.60
2023-04-26T19:07:31.854Z,7.47
2023-04-26T19:10:00.844Z,3.88
2023-04-26T19:12:28.498Z,4.72
2023-04-26T19:14:55.483Z,2.83
2023-04-26T19:17:22.764Z,3.53
2023-04-26T19:19:52.190Z,4.57
2023-04-26T19:22:20.692Z,4.28
2023-04-26T19:24:48.931Z,3.53
2023-04-26T19:27:16.458Z,3.45
2023-04-26T19:29:43.406Z,3.78
2023-04-26T19:32:10.367Z,3.33
2023-04-26T19:34:38.972Z,3.95
2023-04-26T19:39:34.316Z,4.18
2023-04-26T19:42:01.609Z,3.90
2023-04-26T19:44:28.622Z,6.10
2023-04-26T19:46:56.630Z,3.80
2023-04-26T19:49:23.688Z,3.58
2023-04-26T19:51:50.774Z,4.22
2023-04-26T19:54:18.078Z,3.95
2023-04-26T19:56:46.606Z,3.63
2023-04-26T20:01:40.678Z,4.53
2023-04-26T20:04:07.848Z,6.15
2023-04-26T20:06:35.130Z,7.82
2023-04-26T20:09:02.236Z,4.20
2023-04-26T20:11:29.227Z,4.35
2023-04-26T20:13:57.664Z,4.03
2023-04-26T20:16:25.307Z,4.15
2023-04-26T20:18:52.321Z,3.92
2023-04-26T20:21:19.268Z,3.80
2023-04-26T20:23:46.389Z,5.20
2023-04-26T20:26:13.453Z,4.78
2023-04-26T20:28:40.673Z,6.40
2023-04-26T20:31:09.584Z,5.35
2023-04-26T20:33:36.771Z,4.75
2023-04-26T20:36:03.842Z,6.15
2023-04-26T20:38:30.828Z,5.25
2023-04-26T20:40:57.982Z,4.78
2023-04-26T20:43:25.046Z,9.13
2023-04-26T20:45:52.045Z,4.05
2023-04-26T20:48:20.557Z,4.22
2023-04-26T20:50:47.662Z,4.38
2023-04-26T20:53:14.621Z,5.25
2023-04-26T20:55:41.676Z,5.97
2023-04-26T20:58:08.707Z,4.05
2023-04-26T21:00:35.924Z,3.90
2023-04-26T21:03:03.094Z,3.85
2023-04-26T21:05:31.765Z,5.68
2023-04-26T21:10:25.599Z,7.93
2023-04-26T21:12:52.748Z,5.20
2023-04-26T21:15:19.740Z,4.03
2023-04-26T21:17:46.982Z,5.57
2023-04-26T21:20:14.256Z,8.23
2023-04-26T21:22:42.610Z,5.50
2023-04-26T21:25:10.603Z,4.60
2023-04-26T21:27:37.491Z,4.85
2023-04-26T21:30:05.433Z,4.97
2023-04-26T21:32:32.367Z,7.00
2023-04-26T21:34:59.363Z,8.13
2023-04-26T21:37:26.872Z,6.30
2023-04-26T21:39:55.365Z,5.35
2023-04-26T21:42:22.345Z,4.25
2023-04-26T21:44:49.309Z,7.22
2023-04-26T21:47:16.511Z,4.75
2023-04-26T21:49:43.439Z,5.45
2023-04-26T21:52:10.618Z,3.42
2023-04-26T21:54:37.640Z,7.68
2023-04-26T21:57:06.832Z,5.60
2023-04-26T21:59:34.191Z,4.75
2023-04-26T22:02:01.311Z,5.35
2023-04-26T22:04:28.455Z,5.78
2023-04-26T22:06:55.533Z,6.55
2023-04-26T22:09:22.697Z,6.32
2023-04-26T22:11:49.695Z,5.25
2023-04-26T22:14:18.148Z,4.82
2023-04-26T22:16:45.171Z,4.82
2023-04-26T22:19:12.368Z,6.05
2023-04-26T22:21:39.451Z,4.78
2023-04-26T22:24:07.315Z,5.47
2023-04-26T22:26:34.293Z,4.63
2023-04-26T22:29:01.268Z,5.68
2023-04-26T22:31:29.665Z,7.75
2023-04-26T22:33:56.854Z,5.90
2023-04-26T22:36:24.003Z,5.28
2023-04-26T22:38:51.172Z,3.13
2023-04-26T22:41:18.108Z,4.30
2023-04-26T22:43:47.260Z,6.18
2023-04-26T22:46:14.226Z,4.70
2023-04-26T22:48:42.556Z,5.65
2023-04-26T22:51:09.514Z,3.00
2023-04-26T22:53:36.438Z,3.63
2023-04-26T22:56:04.611Z,2.95
2023-04-26T22:58:31.578Z,6.25
2023-04-26T23:00:58.569Z,3.40
2023-04-26T23:03:25.694Z,4.68
2023-04-26T23:05:54.134Z,5.22
2023-04-26T23:08:21.482Z,2.33
2023-04-26T23:10:48.429Z,4.72
2023-04-26T23:13:16.281Z,4.47
2023-04-26T23:15:43.405Z,6.63
2023-04-26T23:18:10.642Z,8.40
2023-04-26T23:20:37.635Z,4.03
2023-04-26T23:23:24.507Z,4.00
2023-04-26T23:25:51.485Z,3.95
2023-04-26T23:28:18.414Z,5.70
2023-04-26T23:30:45.668Z,5.15
2023-04-26T23:33:12.611Z,2.17
2023-04-26T23:35:41.204Z,3.53
2023-04-26T23:38:09.577Z,6.05
2023-04-26T23:40:37.386Z,3.03
2023-04-26T23:43:06.225Z,3.92
2023-04-26T23:45:33.304Z,6.30
2023-04-26T23:48:00.394Z,5.88
2023-04-26T23:50:27.608Z,5.05
2023-04-26T23:52:54.561Z,6.68
2023-04-26T23:55:23.884Z,4.43
2023-04-26T23:57:50.852Z,3.90
